Palisade, CO (81526)

4:09 AM MDT en Agosto 21, 2014 (GMT -0600)
Rapid Creek Road | Change Station
CLOSE
Current Station
Estación meteorológica personal
Location: Palisade, CO
Altura: 4980 ft
Estaciones meteorológicas cercanas

Alt 4980 ft 39.13 °N, 108.32 °W | Updated 2 minutes ago

Clear
Despejado
61.5 ° F
Sensación térmica 61.5 ° F
N
1.0
Viento Variable Viento desde SE
Gusts 3.0 mph

Hoy
Alta -- | Baja -- ° F
--% Posibilidad de precipitaciones
Ayer
Alta -- | Baja -- ° F
Precip. -- pul
6:32 AM 8:00 PM
Creciente menguante, 15% visible
Presión 29.94 pul
Visibilidad 10.0 Millas
Nubes Despejado
Punto de rocío 48 ° F
Humedad 60%
Precipitaciones 0.00 pul
Espesor de la nieve No disponible.
UV 0 de una escala de 12
Polen 5.60 de una escala de 12
Calidad del aire No disponible.
Flu Activity No disponible.
METAR KGJT 210953Z AUTO 08003KT 10SM CLR 14/11 A3011 RMK AO2 SLP137 T01390106

More Conditions Fewer Conditions

Presión 29.94 pul
Visibilidad 10.0 Millas
Nubes Despejado
Punto de rocío 48 ° F
Humedad 60%
Precipitaciones 0.00 pul
Espesor de la nieve No disponible.
UV 0 de una escala de 12
Polen 5.60 de una escala de 12
Calidad del aire No disponible.
Flu Activity No disponible.
METAR KGJT 210953Z AUTO 08003KT 10SM CLR 14/11 A3011 RMK AO2 SLP137 T01390106

More Conditions Fewer Conditions

10-Day Weather Forecast

Almanac

Astronomía

Aug. 21, 2014 Salida Puesta
Hora real 6:32 AM MDT 8:00 PM MDT
Crepúsculo civil 6:04 AM MDT 8:28 PM MDT
Crepúsculo náutico 5:30 AM MDT 9:01 PM MDT
Crepúsculo astronómico 4:54 AM MDT 9:37 PM MDT
Luna 3:05 AM MDT 5:30 PM MDT
Horas de luz 14h 24m
Horas de luz
13h 27m
Tomorrow will be 2m 21s shorter.
Creciente menguante, 15% of the Moon is Illuminated
Hoy
Creciente menguante
Ago 25
Nueva
Sep 2
Cuarto creciente
Sep 8
Luna llena
Sep 15
Cuarto menguante

Extremos de hoy

Máximos del estado Bajos del estado

Community

WunderPhotos

Upload Photos

1,745,871 ¡fotos cargadas!

Nearby

Grosos de nieve

Estación Profundido Altura
Mesa Lakes 0 in 10000 ft
Park Reservoir 0 in 9960 ft
Overland Reservoir 0 in 9880 ft
Columbine Pass 1 in 9400 ft
McClure Pass 1 in 9500 ft

Actividad de terremotos

Ciudad Distance Mag. Tiempo y dato
No hay informes recientes de la actividad sísmica.
Magnitud mínima muestra es 2,5.

Temperaturas de aguas costeras

Lugar Temperatura
Sin partes meteorológicos de las estaciones

Estaciones meteorológicas cercanas